Data for 06/24/2005

Time Sea-Level Adjusted Pressure Absolute Pressure Temperature Relative Humidity Dew Point   
(mb) (inHg) (mb) (inHg) (C) (F) (%) (C) (F)
00:05 1018 30.06 847 25.01 13.2 55.8 66 7 44.7
00:10 1018 30.06 847 25.01 13 55.4 66 6.8 44.2
00:15 1018 30.06 847 25.01 13.1 55.6 65 6.7 44.1
00:20 1018 30.06 847 25.01 13.2 55.7 64 6.6 44
00:25 1018 30.06 847 25.01 13.2 55.7 64 6.5 43.7
00:30 1018 30.06 848 25.04 12.9 55.3 65 6.6 44
00:35 1018 30.06 847 25.01 13 55.3 63 6.2 43.2
00:40 1018 30.06 847 25.01 13.3 55.9 61 6.1 42.9
00:45 1018 30.06 847 25.01 13.5 56.3 61 6.3 43.3
00:50 1018 30.06 847 25.01 13.4 56.1 62 6.4 43.4
00:55 1018 30.06 847 25.01 13.3 56 62 6.3 43.4
01:00 1018 30.06 847 25.01 13.3 56 63 6.5 43.7
01:05 1018 30.06 847 25.01 13.2 55.7 64 6.5 43.7
01:10 1018 30.06 848 25.04 13 55.5 64 6.5 43.7
01:15 1018 30.06 848 25.04 13 55.3 65 6.5 43.8
01:20 1018 30.06 847 25.01 12.8 55 65 6.4 43.4
01:25 1018 30.06 847 25.01 12.8 55 65 6.4 43.5
01:30 1018 30.06 847 25.01 12.8 55 65 6.3 43.3
01:35 1018 30.06 847 25.01 13 55.4 63 6.3 43.3
01:40 1018 30.06 847 25.01 12.8 55 64 6.2 43.2
01:45 1018 30.06 847 25.01 12.6 54.7 65 6.3 43.4
01:50 1018 30.06 847 25.01 12.6 54.6 66 6.4 43.6
01:55 1018 30.06 847 25.01 13 55.5 64 6.4 43.6
02:00 1018 30.06 847 25.01 13.1 55.6 64 6.6 43.9
02:05 1018 30.06 847 25.01 12.6 54.7 67 6.6 43.9
02:10 1018 30.06 847 25.01 12.6 54.7 66 6.6 43.8
02:15 1018 30.06 847 25.01 12.9 55.2 65 6.5 43.8
02:20 1018 30.06 847 25.01 12.5 54.4 67 6.6 43.9
02:25 1018 30.06 847 25.01 11.9 53.4 69 6.4 43.6
02:30 1018 30.06 847 25.01 11.5 52.7 69 6.1 43
02:35 1018 30.06 847 25.01 11.4 52.6 69 5.9 42.6
02:40 1018 30.06 847 25.01 11.6 52.8 68 6 42.8
02:45 1018 30.06 847 25.01 11.7 53 71 6.7 44.1
02:50 1018 30.06 848 25.04 11.6 52.8 68 5.9 42.6
02:55 1018 30.06 847 25.01 11.4 52.6 65 5.1 41.2
03:00 1018 30.06 847 25.01 11.3 52.3 65 5.1 41.2
03:05 1018 30.06 847 25.01 11.2 52.1 67 5.3 41.5
03:10 1018 30.06 847 25.01 10.9 51.5 74 6.4 43.5
03:15 1018 30.06 847 25.01 11 51.8 70 5.9 42.6
03:20 1018 30.06 847 25.01 10.8 51.4 72 6 42.8
03:25 1018 30.06 847 25.01 10.7 51.2 73 6.1 42.9
03:30 1018 30.06 847 25.01 10.6 51 74 6.2 43.1
03:35 1018 30.06 847 25.01 10.6 51 74 6.2 43.2
03:40 1018 30.06 847 25.01 10.6 51 74 6.1 43
03:45 1018 30.06 847 25.01 10.6 51.1 73 6.1 43
03:50 1018 30.06 847 25.01 10.8 51.4 72 6 42.8
03:55 1018 30.06 848 25.04 10.7 51.2 73 6.1 42.9
04:00 1018 30.06 848 25.04 10.8 51.5 71 5.9 42.6
04:05 1018 30.06 848 25.04 10.8 51.5 71 5.8 42.4
04:10 1018 30.06 848 25.04 10.9 51.7 72 6.1 43.1
04:15 1018 30.06 848 25.04 10.9 51.5 70 5.7 42.3
04:20 1018 30.06 848 25.04 10.6 51.1 69 5.2 41.4
04:25 1018 30.06 848 25.04 10.3 50.5 71 5.2 41.4
04:30 1018 30.06 848 25.04 9.5 49 74 5 41
04:35 1018 30.06 848 25.04 9.5 49.2 71 4.6 40.2
04:40 1018 30.06 848 25.04 9.9 49.7 70 4.6 40.3
04:45 1018 30.06 848 25.04 10 49.9 69 4.6 40.3
04:50 1018 30.06 848 25.04 9.8 49.7 70 4.6 40.2
04:55 1018 30.06 848 25.04 9.5 49.1 71 4.6 40.3
05:00 1018 30.06 848 25.04 9.3 48.7 72 4.6 40.3
05:05 1018 30.06 848 25.04 9.2 48.5 74 4.7 40.5
05:10 1018 30.06 848 25.04 8.9 48.1 73 4.4 40
05:15 1018 30.06 848 25.04 9.1 48.4 72 4.4 40
05:20 1019 30.09 848 25.04 9.2 48.6 72 4.5 40.1
05:25 1019 30.09 848 25.04 9.3 48.7 71 4.3 39.8
05:30 1019 30.09 848 25.04 9.5 49 72 4.8 40.6
05:35 1019 30.09 848 25.04 9.2 48.6 74 4.9 40.8
05:40 1019 30.09 848 25.04 9.2 48.5 74 4.9 40.8
05:45 1019 30.09 848 25.04 9.5 49.1 73 4.9 40.8
05:50 1019 30.09 848 25.04 9.5 49 74 5 41
05:55 1019 30.09 848 25.04 9.3 48.7 74 4.8 40.6
06:00 1019 30.09 848 25.04 9.1 48.4 75 4.9 40.8
06:05 1019 30.09 848 25.04 9.2 48.6 74 4.8 40.6
06:10 1019 30.09 848 25.04 9.5 49 73 4.8 40.7
06:15 1019 30.09 848 25.04 9.7 49.5 72 4.9 40.9
06:20 1019 30.09 848 25.04 9.9 49.9 72 5.2 41.4
06:25 1019 30.09 848 25.04 10.3 50.5 72 5.4 41.7
06:30 1019 30.09 848 25.04 10.6 51.1 68 5.1 41.2
06:35 1019 30.09 848 25.04 10.8 51.4 69 5.4 41.7
06:40 1019 30.09 848 25.04 10.9 51.5 71 5.8 42.4
06:45 1019 30.09 848 25.04 10.9 51.7 71 5.8 42.5
06:50 1019 30.09 848 25.04 11.2 52.2 70 6 42.7
06:55 1019 30.09 848 25.04 11.6 52.8 69 6.1 43
07:00 1019 30.09 848 25.04 11.9 53.3 68 6.2 43.2
07:05 1019 30.09 848 25.04 12 53.6 69 6.5 43.7
07:10 1019 30.09 848 25.04 12.1 53.8 71 7 44.6
07:15 1019 30.09 848 25.04 12.1 53.7 71 7 44.5
07:20 1019 30.09 848 25.04 11.9 53.5 71 6.9 44.5
07:25 1019 30.09 848 25.04 12.1 53.9 70 6.9 44.4
07:30 1019 30.09 848 25.04 12.8 55 69 7.2 45
07:35 1019 30.09 848 25.04 13.2 55.7 70 7.9 46.2
07:40 1019 30.09 848 25.04 13.2 55.8 69 7.7 45.9
07:45 1019 30.09 848 25.04 13.4 56 68 7.6 45.7
07:50 1019 30.09 848 25.04 13.5 56.2 66 7.3 45.2
07:55 1019 30.09 848 25.04 13.6 56.5 67 7.7 45.9
08:00 1019 30.09 848 25.04 13.9 57 66 7.6 45.8
08:05 1019 30.09 848 25.04 14.3 57.8 64 7.6 45.6
08:10 1019 30.09 848 25.04 14.4 58 65 8.1 46.6
08:15 1019 30.09 848 25.04 14.5 58.2 66 8.4 47.1
08:20 1019 30.09 848 25.04 15.4 59.7 62 8.2 46.8
08:25 1019 30.09 848 25.04 15.6 60.1 61 8.2 46.8
08:30 1019 30.09 848 25.04 15.5 59.8 61 8.1 46.6
08:35 1019 30.09 848 25.04 15.7 60.3 60 8.2 46.7
08:40 1019 30.09 848 25.04 16.1 61 57 7.7 45.9
08:45 1019 30.09 848 25.04 16.4 61.5 57 7.9 46.2
08:50 1019 30.09 848 25.04 16.6 61.9 57 8.1 46.6
08:55 1019 30.09 848 25.04 16.2 61.2 57 7.8 46
09:00 1019 30.09 848 25.04 16.8 62.2 55 7.8 46.1
09:05 1019 30.09 848 25.04 16.9 62.4 56 8.1 46.7
09:10 1019 30.09 848 25.04 17.2 63 55 8.1 46.5
09:15 1019 30.09 848 25.04 17.1 62.8 54 7.9 46.2
09:20 1019 30.09 848 25.04 16.9 62.3 56 8.2 46.8
09:25 1019 30.09 848 25.04 16.8 62.2 53 7.1 44.9
09:30 1019 30.09 848 25.04 17.2 62.9 51 7 44.7
09:35 1019 30.09 848 25.04 17.7 63.9 50 7.4 45.4
09:40 1019 30.09 848 25.04 18.5 65.3 48 7.5 45.5
09:45 1019 30.09 848 25.04 18.3 64.9 48 7.2 45
09:50 1019 30.09 848 25.04 19 66.2 45 7 44.6
09:55 1019 30.09 848 25.04 19.2 66.6 47 7.8 46.1
10:00 1019 30.09 848 25.04 18.4 65 47 7.1 44.8
10:05 1019 30.09 848 25.04 18.9 65.9 47 7.3 45.2
10:10 1018 30.06 848 25.04 20.3 68.5 42 7 44.6
10:15 1018 30.06 848 25.04 20.2 68.3 44 7.5 45.6
10:20 1018 30.06 848 25.04 20 68 44 7.6 45.7
10:25 1018 30.06 848 25.04 20.2 68.4 42 6.9 44.4
10:30 1018 30.06 847 25.01 20.4 68.8 43 7.6 45.7
10:35 1018 30.06 847 25.01 20.4 68.8 42 7.4 45.3
10:40 1018 30.06 847 25.01 20.8 69.4 39 6.5 43.8
10:45 1018 30.06 847 25.01 20.6 69.1 40 6.7 44
10:50 1018 30.06 847 25.01 20.6 69.1 40 6.7 44.1
10:55 1018 30.06 847 25.01 20.5 68.9 40 6.5 43.7
11:00 1018 30.06 847 25.01 20.3 68.6 41 6.8 44.2
11:05 1018 30.06 847 25.01 21 69.8 38 6.2 43.2
11:10 1018 30.06 847 25.01 21.3 70.3 39 6.9 44.4
11:15 1018 30.06 847 25.01 21.6 70.8 38 7 44.5
11:20 1018 30.06 847 25.01 21.7 71 38 6.8 44.2
11:25 1018 30.06 847 25.01 22.4 72.3 38 7.4 45.3
11:30 1018 30.06 847 25.01 22.5 72.4 38 7.8 46.1
11:35 1018 30.06 847 25.01 22.7 72.8 38 7.8 46.1
11:40 1018 30.06 847 25.01 22.6 72.7 40 8.4 47.2
11:45 1018 30.06 847 25.01 22.7 72.8 40 8.5 47.3
11:50 1018 30.06 847 25.01 22.5 72.5 40 8.5 47.3
11:55 1018 30.06 847 25.01 22.3 72.1 41 8.5 47.3
12:00 1017 30.03 847 25.01 22.6 72.7 40 8.4 47.1
12:05 1017 30.03 847 25.01 22.8 73.1 40 8.7 47.7
12:10 1017 30.03 847 25.01 22.6 72.7 40 8.4 47.1
12:15 1017 30.03 847 25.01 21.5 70.6 43 8.6 47.5
12:20 1017 30.03 847 25.01 21.4 70.6 42 8.1 46.7
12:25 1017 30.03 847 25.01 22 71.7 42 8.6 47.4
12:30 1017 30.03 847 25.01 21.6 70.9 42 8.4 47.1
12:35 1017 30.03 847 25.01 22.4 72.2 41 8.7 47.7
12:40 1017 30.03 847 25.01 22 71.6 44 9.2 48.6
12:45 1017 30.03 847 25.01 22 71.7 40 8.1 46.6
12:50 1017 30.03 846 24.98 22.6 72.7 39 8.2 46.7
12:55 1017 30.03 846 24.98 22.2 71.9 41 8.5 47.3
13:00 1017 30.03 846 24.98 21.7 71 40 7.6 45.7
13:05 1017 30.03 846 24.98 23.4 74.1 35 7.3 45.1
13:10 1017 30.03 846 24.98 23.3 73.9 37 7.9 46.3
13:15 1017 30.03 846 24.98 23.2 73.8 34 6.9 44.3
13:20 1017 30.03 846 24.98 24.1 75.3 33 6.9 44.5
13:25 1017 30.03 846 24.98 23.7 74.7 34 7 44.5
13:30 1017 30.03 846 24.98 23.3 73.9 36 7.5 45.4
13:35 1017 30.03 846 24.98 23.4 74.1 35 7.2 44.9
13:40 1017 30.03 846 24.98 23.7 74.6 37 8.2 46.8
13:45 1017 30.03 846 24.98 23.7 74.7 35 7.4 45.2
13:50 1017 30.03 846 24.98 24.7 76.4 33 7.6 45.6
13:55 1017 30.03 846 24.98 25 77 33 7.7 45.9
14:00 1017 30.03 846 24.98 25.4 77.7 33 8.2 46.8
14:05 1017 30.03 846 24.98 24.9 76.7 32 7.4 45.3
14:10 1017 30.03 846 24.98 25 77 32 7.5 45.4
14:15 1017 30.03 846 24.98 25.3 77.5 32 7.5 45.5
14:20 1017 30.03 846 24.98 25.5 77.9 32 7.8 46.1
14:25 1017 30.03 846 24.98 25.2 77.4 32 7.5 45.4
14:30 1017 30.03 846 24.98 25.4 77.7 31 7.5 45.6
14:35 1017 30.03 846 24.98 25.4 77.7 32 7.9 46.2
14:40 1017 30.03 846 24.98 25.1 77.1 32 7.4 45.4
14:45 1016 30 846 24.98 25.1 77.2 31 6.9 44.4
14:50 1016 30 845 24.95 25.3 77.5 32 7.6 45.7
14:55 1016 30 845 24.95 25.4 77.8 31 7.5 45.4
15:00 1016 30 845 24.95 25.3 77.5 32 7.7 45.9
15:05 1016 30 845 24.95 25 76.9 30 6.6 43.9
15:10 1016 30 845 24.95 25.8 78.5 30 7.3 45.1
15:15 1016 30 845 24.95 25.8 78.4 30 7.1 44.8
15:20 1016 30 845 24.95 25.1 77.2 32 7.3 45.2
15:25 1016 30 845 24.95 25.7 78.2 29 6.8 44.2
15:30 1016 30 845 24.95 25.5 77.8 30 6.9 44.4
15:35 1016 30 845 24.95 25.3 77.5 29 6.5 43.6
15:40 1016 30 845 24.95 26 78.7 27 5.9 42.6
15:45 1016 30 845 24.95 26.5 79.7 28 6.7 44.1
15:50 1016 30 845 24.95 26.4 79.5 28 6.6 43.9
15:55 1016 30 845 24.95 25.2 77.4 30 6.4 43.5
16:00 1015 29.97 845 24.95 24.4 75.9 30 6.1 42.9
16:05 1015 29.97 845 24.95 24.6 76.2 30 6 42.7
16:10 1015 29.97 844 24.92 24.6 76.2 30 6 42.8
16:15 1015 29.97 844 24.92 24.5 76 30 6 42.9
16:20 1015 29.97 844 24.92 24.5 76 29 5.5 41.9
16:25 1015 29.97 844 24.92 25.1 77.1 29 5.8 42.5
16:30 1015 29.97 844 24.92 25.3 77.5 28 5.8 42.5
16:35 1015 29.97 844 24.92 25 77 29 5.8 42.4
16:40 1015 29.97 844 24.92 25.2 77.3 28 5.5 41.9
16:45 1015 29.97 844 24.92 25.4 77.6 28 5.9 42.7
16:50 1015 29.97 844 24.92 26.4 79.4 27 6.1 42.9
16:55 1015 29.97 844 24.92 27 80.5 26 6.3 43.3
17:00 1015 29.97 844 24.92 26.2 79.2 28 6.8 44.2
17:05 1015 29.97 844 24.92 25.9 78.7 27 5.9 42.6
17:10 1015 29.97 844 24.92 26.3 79.4 26 5.7 42.2
17:15 1015 29.97 844 24.92 27 80.7 26 6.2 43.1
17:20 1015 29.97 844 24.92 27.2 80.9 27 6.6 43.9
17:25 1014 29.94 844 24.92 26.6 79.8 26 5.9 42.7
17:30 1014 29.94 844 24.92 26.9 80.5 25 5.7 42.2
17:35 1015 29.97 844 24.92 27.7 81.8 24 5.7 42.2
17:40 1015 29.97 844 24.92 28.2 82.7 24 6.3 43.3
17:45 1015 29.97 844 24.92 26.1 79 28 6.4 43.5
17:50 1015 29.97 844 24.92 26.1 78.9 27 5.8 42.4
17:55 1014 29.94 844 24.92 26.9 80.4 26 6.1 42.9
18:00 1014 29.94 844 24.92 26.6 79.8 28 6.6 43.9
18:05 1014 29.94 844 24.92 26.2 79.2 27 6.1 43
18:10 1014 29.94 843 24.89 25.4 77.6 28 5.9 42.7
18:15 1014 29.94 843 24.89 25.5 77.8 27 5.4 41.7
18:20 1014 29.94 843 24.89 26.2 79.1 26 5.2 41.4
18:25 1014 29.94 843 24.89 25.9 78.5 27 5.8 42.4
18:30 1014 29.94 843 24.89 25.5 77.9 33 8.2 46.7
18:35 1014 29.94 843 24.89 25.2 77.4 33 8.1 46.5
18:40 1014 29.94 843 24.89 25.3 77.5 33 8.2 46.8
18:45 1014 29.94 843 24.89 24.8 76.7 34 8.3 46.9
18:50 1014 29.94 843 24.89 24.5 76.1 35 8.4 47.1
18:55 1014 29.94 843 24.89 24.2 75.5 37 8.9 47.9
19:00 1014 29.94 843 24.89 23.9 75 38 8.8 47.8
19:05 1014 29.94 843 24.89 23.6 74.5 38 8.6 47.5
19:10 1014 29.94 843 24.89 23.4 74.1 41 9.5 49.1
19:15 1014 29.94 843 24.89 23.1 73.5 41 9.3 48.7
19:20 1014 29.94 844 24.92 21.8 71.3 35 5.8 42.5
19:25 1015 29.97 844 24.92 21 69.8 38 6.2 43.1
19:30 1014 29.94 844 24.92 20.4 68.7 42 7.2 44.9
19:35 1014 29.94 844 24.92 19.4 66.9 56 10.5 50.9
19:40 1015 29.97 844 24.92 17.2 63 66 11 51.8
19:45 1015 29.97 844 24.92 16.8 62.2 72 11.7 53.1
19:50 1015 29.97 844 24.92 15.8 60.4 77 11.9 53.3
19:55 1015 29.97 844 24.92 15.6 60.1 76 11.4 52.5
20:00 1015 29.97 844 24.92 15.8 60.4 77 11.7 53.1
20:05 1015 29.97 844 24.92 15.7 60.3 76 11.5 52.8
20:10 1015 29.97 845 24.95 15.7 60.2 80 12.3 54.2
20:15 1015 29.97 845 24.95 15.3 59.5 82 12.3 54.1
20:20 1015 29.97 845 24.95 15.2 59.4 76 11 51.8
20:25 1015 29.97 845 24.95 15.9 60.6 61 8.6 47.4
20:30 1015 29.97 844 24.92 16.7 62.1 56 7.9 46.2
20:35 1015 29.97 844 24.92 17.4 63.2 53 7.7 45.8
20:40 1015 29.97 844 24.92 17.9 64.2 49 7.1 44.8
20:45 1015 29.97 844 24.92 18.2 64.7 44 5.9 42.5
20:50 1015 29.97 844 24.92 18.3 64.9 44 5.8 42.4
20:55 1015 29.97 844 24.92 18.2 64.7 45 6.2 43.1
21:00 1015 29.97 844 24.92 18.3 65 44 5.8 42.5
21:05 1015 29.97 844 24.92 17.9 64.3 46 6.2 43.2
21:10 1015 29.97 844 24.92 17.7 63.9 46 6.1 43.1
21:15 1015 29.97 844 24.92 17.7 63.8 43 5 41.1
21:20 1015 29.97 844 24.92 18.2 64.8 43 5.5 41.8
21:25 1015 29.97 844 24.92 18.4 65.2 40 4.6 40.3
21:30 1015 29.97 844 24.92 18.3 65 43 5.5 42
21:35 1015 29.97 844 24.92 18.6 65.5 44 6.1 43
21:40 1015 29.97 844 24.92 18.2 64.8 48 7.1 44.8
21:45 1015 29.97 844 24.92 17.6 63.7 52 7.8 46
21:50 1015 29.97 844 24.92 17.1 62.8 54 7.8 46.1
21:55 1015 29.97 844 24.92 16.9 62.4 55 7.8 46
22:00 1015 29.97 844 24.92 16.6 61.9 57 8 46.4
22:05 1015 29.97 844 24.92 16.3 61.4 58 8.2 46.8
22:10 1015 29.97 844 24.92 16.1 61 60 8.3 47
22:15 1015 29.97 844 24.92 15.9 60.6 58 7.7 45.9
22:20 1015 29.97 844 24.92 15.7 60.3 57 7.2 45
22:25 1015 29.97 844 24.92 15.7 60.3 57 7.4 45.4
22:30 1015 29.97 844 24.92 15.5 59.8 57 7 44.5
22:35 1015 29.97 844 24.92 15.5 59.8 57 7 44.6
22:40 1015 29.97 844 24.92 15.5 59.9 56 6.9 44.4
22:45 1015 29.97 844 24.92 15.6 60 56 7 44.6
22:50 1015 29.97 844 24.92 15.5 59.9 56 6.9 44.4
22:55 1015 29.97 844 24.92 15.4 59.7 57 6.9 44.4
23:00 1015 29.97 844 24.92 15.3 59.5 56 6.7 44
23:05 1015 29.97 844 24.92 15.3 59.6 56 6.7 44.1
23:10 1015 29.97 844 24.92 15.2 59.4 57 6.8 44.2
23:15 1015 29.97 844 24.92 15.1 59.1 57 6.6 43.8
23:20 1015 29.97 844 24.92 15 59.1 57 6.6 43.9
23:25 1015 29.97 844 24.92 15 59 57 6.6 44
23:30 1015 29.97 844 24.92 14.9 58.8 57 6.6 44
23:35 1015 29.97 844 24.92 14.8 58.7 57 6.5 43.7
23:40 1015 29.97 844 24.92 14.8 58.7 57 6.5 43.7
23:45 1015 29.97 844 24.92 15 59 56 6.4 43.6
23:50 1015 29.97 844 24.92 14.6 58.3 59 6.8 44.2
23:55 1015 29.97 844 24.92 14.2 57.6 60 6.7 44
24:00 1015 29.97 844 24.92 14.2 57.5 60 6.5 43.8